sensor_id;sensor_type;location;lat;lon;timestamp;pressure;altitude;pressure_sealevel;temperature;humidity
29239;BME280;16267;48.194;11.546;2023-01-28T00:01:06;96304.38;;;0.55;82.42
29239;BME280;16267;48.194;11.546;2023-01-28T00:03:32;96299.09;;;0.55;82.85
29239;BME280;16267;48.194;11.546;2023-01-28T00:06:04;96293.81;;;0.55;83.06
29239;BME280;16267;48.194;11.546;2023-01-28T00:08:31;96298.78;;;0.57;82.84
29239;BME280;16267;48.194;11.546;2023-01-28T00:11:03;96298.78;;;0.57;83.13
29239;BME280;16267;48.194;11.546;2023-01-28T00:13:31;96296.91;;;0.57;82.76
29239;BME280;16267;48.194;11.546;2023-01-28T00:16:07;96292.75;;;0.56;82.93
29239;BME280;16267;48.194;11.546;2023-01-28T00:18:35;96304.06;;;0.57;83.28
29239;BME280;16267;48.194;11.546;2023-01-28T00:21:13;96297.25;;;0.56;83.23
29239;BME280;16267;48.194;11.546;2023-01-28T00:23:42;96296.91;;;0.57;83.06
29239;BME280;16267;48.194;11.546;2023-01-28T00:26:13;96296.91;;;0.57;83.35
29239;BME280;16267;48.194;11.546;2023-01-28T00:28:40;96292.75;;;0.56;83.08
29239;BME280;16267;48.194;11.546;2023-01-28T00:31:20;96295.69;;;0.55;83.08
29239;BME280;16267;48.194;11.546;2023-01-28T00:33:48;96291.97;;;0.56;83.20
29239;BME280;16267;48.194;11.546;2023-01-28T00:36:15;96295.38;;;0.56;83.23
29239;BME280;16267;48.194;11.546;2023-01-28T00:38:57;96298.78;;;0.57;83.28
29239;BME280;16267;48.194;11.546;2023-01-28T00:41:27;96296.03;;;0.53;82.72
29239;BME280;16267;48.194;11.546;2023-01-28T00:43:53;96296.03;;;0.53;83.05
29239;BME280;16267;48.194;11.546;2023-01-28T00:46:20;96294.81;;;0.51;82.56
29239;BME280;16267;48.194;11.546;2023-01-28T00:48:47;96296.69;;;0.50;82.82
29239;BME280;16267;48.194;11.546;2023-01-28T00:51:17;96290.63;;;0.50;82.93
29239;BME280;16267;48.194;11.546;2023-01-28T00:53:45;96295.47;;;0.48;83.19
29239;BME280;16267;48.194;11.546;2023-01-28T00:56:16;96301.53;;;0.48;83.04
29239;BME280;16267;48.194;11.546;2023-01-28T00:58:42;96296.56;;;0.47;83.16
29239;BME280;16267;48.194;11.546;2023-01-28T01:01:32;96292.38;;;0.46;83.31
29239;BME280;16267;48.194;11.546;2023-01-28T01:03:58;96301.41;;;0.44;83.16
29239;BME280;16267;48.194;11.546;2023-01-28T01:06:33;96303.25;;;0.44;82.94
29239;BME280;16267;48.194;11.546;2023-01-28T01:09:09;96296.44;;;0.43;83.56
29239;BME280;16267;48.194;11.546;2023-01-28T01:11:35;96303.59;;;0.42;83.34
29239;BME280;16267;48.194;11.546;2023-01-28T01:14:02;96307.19;;;0.38;82.29
29239;BME280;16267;48.194;11.546;2023-01-28T01:16:32;96303.78;;;0.37;83.70
29239;BME280;16267;48.194;11.546;2023-01-28T01:18:58;96306.75;;;0.36;83.41
29239;BME280;16267;48.194;11.546;2023-01-28T01:21:27;96312.03;;;0.36;83.55
29239;BME280;16267;48.194;11.546;2023-01-28T01:23:54;96310.50;;;0.35;83.52
29239;BME280;16267;48.194;11.546;2023-01-28T01:26:22;96307.09;;;0.34;83.29
29239;BME280;16267;48.194;11.546;2023-01-28T01:28:50;96308.50;;;0.32;83.47
29239;BME280;16267;48.194;11.546;2023-01-28T01:31:20;96315.31;;;0.33;83.47
29239;BME280;16267;48.194;11.546;2023-01-28T01:33:48;96311.16;;;0.32;83.45
29239;BME280;16267;48.194;11.546;2023-01-28T01:36:17;96313.03;;;0.31;83.51
29239;BME280;16267;48.194;11.546;2023-01-28T01:38:46;96313.78;;;0.32;83.93
29239;BME280;16267;48.194;11.546;2023-01-28T01:41:28;96320.19;;;0.31;83.56
29239;BME280;16267;48.194;11.546;2023-01-28T01:44:01;96313.78;;;0.32;83.70
29239;BME280;16267;48.194;11.546;2023-01-28T01:46:46;96321.25;;;0.30;83.81
29239;BME280;16267;48.194;11.546;2023-01-28T01:49:24;96333.38;;;0.31;83.79
29239;BME280;16267;48.194;11.546;2023-01-28T01:52:02;96329.19;;;0.30;84.03
29239;BME280;16267;48.194;11.546;2023-01-28T01:54:31;96323.91;;;0.30;83.85
29239;BME280;16267;48.194;11.546;2023-01-28T01:56:58;96323.13;;;0.29;84.06
29239;BME280;16267;48.194;11.546;2023-01-28T01:59:30;96323.91;;;0.30;83.80
29239;BME280;16267;48.194;11.546;2023-01-28T02:02:00;96333.38;;;0.31;84.12
29239;BME280;16267;48.194;11.546;2023-01-28T02:04:32;96322.38;;;0.29;83.45
29239;BME280;16267;48.194;11.546;2023-01-28T02:07:00;96321.25;;;0.30;84.04
29239;BME280;16267;48.194;11.546;2023-01-28T02:09:31;96325.00;;;0.29;83.70
29239;BME280;16267;48.194;11.546;2023-01-28T02:12:06;96334.47;;;0.30;84.17
29239;BME280;16267;48.194;11.546;2023-01-28T02:14:41;96325.78;;;0.29;84.18
29239;BME280;16267;48.194;11.546;2023-01-28T02:17:07;96333.69;;;0.29;84.23
29239;BME280;16267;48.194;11.546;2023-01-28T02:22:54;96334.81;;;0.28;84.02
29239;BME280;16267;48.194;11.546;2023-01-28T02:29:20;96336.34;;;0.29;84.00
29239;BME280;16267;48.194;11.546;2023-01-28T02:34:55;96326.88;;;0.28;84.36
29239;BME280;16267;48.194;11.546;2023-01-28T02:38:11;96333.25;;;0.27;84.02
29239;BME280;16267;48.194;11.546;2023-01-28T02:40:43;96337.75;;;0.27;83.82
29239;BME280;16267;48.194;11.546;2023-01-28T02:43:45;96344.13;;;0.26;83.84
29239;BME280;16267;48.194;11.546;2023-01-28T02:49:10;96340.28;;;0.23;83.93
29239;BME280;16267;48.194;11.546;2023-01-28T02:54:18;96346.22;;;0.20;84.29
29239;BME280;16267;48.194;11.546;2023-01-28T03:00:14;96350.56;;;0.16;84.03
29239;BME280;16267;48.194;11.546;2023-01-28T03:05:48;96346.41;;;0.15;84.34
29239;BME280;16267;48.194;11.546;2023-01-28T03:08:44;96348.59;;;0.13;84.35
29239;BME280;16267;48.194;11.546;2023-01-28T03:11:33;96359.91;;;0.13;84.64
29239;BME280;16267;48.194;11.546;2023-01-28T03:14:19;96353.09;;;0.12;84.38
29239;BME280;16267;48.194;11.546;2023-01-28T03:17:11;96363.66;;;0.12;84.86
29239;BME280;16267;48.194;11.546;2023-01-28T03:19:58;96359.47;;;0.11;84.90
29239;BME280;16267;48.194;11.546;2023-01-28T03:22:45;96359.13;;;0.13;84.94
29239;BME280;16267;48.194;11.546;2023-01-28T03:25:33;96365.19;;;0.13;84.98
29239;BME280;16267;48.194;11.546;2023-01-28T03:28:21;96359.91;;;0.13;85.11
29239;BME280;16267;48.194;11.546;2023-01-28T03:31:12;96365.94;;;0.14;85.08
29239;BME280;16267;48.194;11.546;2023-01-28T03:33:59;96363.66;;;0.12;84.94
29239;BME280;16267;48.194;11.546;2023-01-28T03:36:45;96367.81;;;0.13;85.08
29239;BME280;16267;48.194;11.546;2023-01-28T03:39:16;96368.16;;;0.12;84.88
29239;BME280;16267;48.194;11.546;2023-01-28T03:41:42;96364.75;;;0.11;84.81
29239;BME280;16267;48.194;11.546;2023-01-28T03:44:08;96368.16;;;0.12;85.30
29239;BME280;16267;48.194;11.546;2023-01-28T03:46:52;96376.09;;;0.12;84.99
29239;BME280;16267;48.194;11.546;2023-01-28T03:49:18;96374.50;;;0.11;84.99
29239;BME280;16267;48.194;11.546;2023-01-28T03:51:44;96365.84;;;0.10;85.24
29239;BME280;16267;48.194;11.546;2023-01-28T03:54:11;96367.41;;;0.11;85.21
29239;BME280;16267;48.194;11.546;2023-01-28T03:56:37;96377.94;;;0.11;84.92
29239;BME280;16267;48.194;11.546;2023-01-28T03:59:05;96372.97;;;0.10;84.30
29239;BME280;16267;48.194;11.546;2023-01-28T04:01:31;96374.84;;;0.09;84.75
29239;BME280;16267;48.194;11.546;2023-01-28T04:03:58;96372.22;;;0.09;84.88
29239;BME280;16267;48.194;11.546;2023-01-28T04:06:24;96372.22;;;0.09;84.80
29239;BME280;16267;48.194;11.546;2023-01-28T04:08:50;96377.50;;;0.09;84.71
29239;BME280;16267;48.194;11.546;2023-01-28T04:11:24;96369.88;;;0.08;84.65
29239;BME280;16267;48.194;11.546;2023-01-28T04:13:51;96379.38;;;0.09;84.49
29239;BME280;16267;48.194;11.546;2023-01-28T04:16:18;96386.19;;;0.10;84.40
29239;BME280;16267;48.194;11.546;2023-01-28T04:18:45;96384.66;;;0.09;84.52
29239;BME280;16267;48.194;11.546;2023-01-28T04:21:11;96392.56;;;0.09;84.66
29239;BME280;16267;48.194;11.546;2023-01-28T04:23:37;96390.69;;;0.09;84.36
29239;BME280;16267;48.194;11.546;2023-01-28T04:26:03;96389.13;;;0.08;84.20
29239;BME280;16267;48.194;11.546;2023-01-28T04:28:29;96390.69;;;0.09;84.31
29239;BME280;16267;48.194;11.546;2023-01-28T04:30:55;96394.09;;;0.10;83.92
29239;BME280;16267;48.194;11.546;2023-01-28T04:33:21;96393.63;;;0.08;83.84
29239;BME280;16267;48.194;11.546;2023-01-28T04:35:47;96392.56;;;0.09;84.32
29239;BME280;16267;48.194;11.546;2023-01-28T04:38:13;96408.72;;;0.07;83.50
29239;BME280;16267;48.194;11.546;2023-01-28T04:40:39;96400.47;;;0.09;83.86
29239;BME280;16267;48.194;11.546;2023-01-28T04:43:04;96402.31;;;0.08;84.21
29239;BME280;16267;48.194;11.546;2023-01-28T04:45:30;96403.13;;;0.09;84.71
29239;BME280;16267;48.194;11.546;2023-01-28T04:47:56;96407.28;;;0.10;84.16
29239;BME280;16267;48.194;11.546;2023-01-28T04:50:22;96411.81;;;0.09;84.24
29239;BME280;16267;48.194;11.546;2023-01-28T04:52:47;96402.00;;;0.10;84.33
29239;BME280;16267;48.194;11.546;2023-01-28T04:55:13;96408.06;;;0.10;84.42
29239;BME280;16267;48.194;11.546;2023-01-28T04:57:39;96409.63;;;0.11;84.67
29239;BME280;16267;48.194;11.546;2023-01-28T05:00:06;96414.91;;;0.11;84.57
29239;BME280;16267;48.194;11.546;2023-01-28T05:02:32;96407.00;;;0.11;84.53
29239;BME280;16267;48.194;11.546;2023-01-28T05:04:58;96413.47;;;0.14;84.56
29239;BME280;16267;48.194;11.546;2023-01-28T05:07:26;96410.81;;;0.14;84.51
29239;BME280;16267;48.194;11.546;2023-01-28T05:09:51;96416.09;;;0.14;84.02
29239;BME280;16267;48.194;11.546;2023-01-28T05:12:17;96416.91;;;0.14;83.96
29239;BME280;16267;48.194;11.546;2023-01-28T05:14:45;96417.53;;;0.11;83.30
29239;BME280;16267;48.194;11.546;2023-01-28T05:17:11;96415.97;;;0.10;83.73
29239;BME280;16267;48.194;11.546;2023-01-28T05:19:37;96420.81;;;0.08;83.26
29239;BME280;16267;48.194;11.546;2023-01-28T05:22:03;96426.09;;;0.08;83.81
29239;BME280;16267;48.194;11.546;2023-01-28T05:24:28;96419.25;;;0.07;83.71
29239;BME280;16267;48.194;11.546;2023-01-28T05:26:54;96420.81;;;0.08;83.96
29239;BME280;16267;48.194;11.546;2023-01-28T05:29:20;96427.94;;;0.08;83.68
29239;BME280;16267;48.194;11.546;2023-01-28T05:31:47;96435.88;;;0.08;83.92
29239;BME280;16267;48.194;11.546;2023-01-28T05:34:13;96442.25;;;0.07;83.62
29239;BME280;16267;48.194;11.546;2023-01-28T05:36:38;96438.84;;;0.06;83.74
29239;BME280;16267;48.194;11.546;2023-01-28T05:39:06;96436.97;;;0.07;83.93
29239;BME280;16267;48.194;11.546;2023-01-28T05:41:33;96441.16;;;0.08;83.95
29239;BME280;16267;48.194;11.546;2023-01-28T05:43:59;96447.53;;;0.07;83.77
29239;BME280;16267;48.194;11.546;2023-01-28T05:46:25;96443.03;;;0.07;84.14
29239;BME280;16267;48.194;11.546;2023-01-28T05:48:51;96448.00;;;0.09;84.09
29239;BME280;16267;48.194;11.546;2023-01-28T05:51:17;96454.03;;;0.09;84.29
29239;BME280;16267;48.194;11.546;2023-01-28T05:53:43;96455.56;;;0.10;84.14
29239;BME280;16267;48.194;11.546;2023-01-28T05:56:09;96457.91;;;0.12;84.20
29239;BME280;16267;48.194;11.546;2023-01-28T05:58:34;96456.81;;;0.13;84.42
29239;BME280;16267;48.194;11.546;2023-01-28T06:01:00;96460.22;;;0.13;84.56
29239;BME280;16267;48.194;11.546;2023-01-28T06:03:26;96462.09;;;0.13;84.00
29239;BME280;16267;48.194;11.546;2023-01-28T06:05:52;96455.69;;;0.14;83.92
29239;BME280;16267;48.194;11.546;2023-01-28T06:08:18;96454.94;;;0.13;83.76
29239;BME280;16267;48.194;11.546;2023-01-28T06:10:44;96457.25;;;0.15;83.95
29239;BME280;16267;48.194;11.546;2023-01-28T06:13:10;96467.06;;;0.14;84.06
29239;BME280;16267;48.194;11.546;2023-01-28T06:15:36;96459.91;;;0.15;83.89
29239;BME280;16267;48.194;11.546;2023-01-28T06:18:02;96461.78;;;0.14;83.94
29239;BME280;16267;48.194;11.546;2023-01-28T06:20:27;96469.69;;;0.14;83.92
29239;BME280;16267;48.194;11.546;2023-01-28T06:22:53;96465.19;;;0.15;84.12
29239;BME280;16267;48.194;11.546;2023-01-28T06:25:19;96473.56;;;0.17;83.97
29239;BME280;16267;48.194;11.546;2023-01-28T06:27:45;96470.13;;;0.16;84.08
29239;BME280;16267;48.194;11.546;2023-01-28T06:30:11;96472.75;;;0.16;84.04
29239;BME280;16267;48.194;11.546;2023-01-28T06:32:37;96474.63;;;0.16;83.90
29239;BME280;16267;48.194;11.546;2023-01-28T06:35:04;96478.84;;;0.17;83.98
29239;BME280;16267;48.194;11.546;2023-01-28T06:37:30;96476.97;;;0.17;84.18
29239;BME280;16267;48.194;11.546;2023-01-28T06:39:56;96484.13;;;0.17;84.01
29239;BME280;16267;48.194;11.546;2023-01-28T06:42:21;96484.13;;;0.17;84.13
29239;BME280;16267;48.194;11.546;2023-01-28T06:44:47;96490.94;;;0.18;84.04
29239;BME280;16267;48.194;11.546;2023-01-28T06:47:13;96489.41;;;0.17;84.24
29239;BME280;16267;48.194;11.546;2023-01-28T06:49:40;96488.28;;;0.18;83.83
29239;BME280;16267;48.194;11.546;2023-01-28T06:52:06;96480.38;;;0.18;84.13
29239;BME280;16267;48.194;11.546;2023-01-28T06:54:31;96485.66;;;0.18;84.24
29239;BME280;16267;48.194;11.546;2023-01-28T06:56:57;96490.94;;;0.18;83.93
29239;BME280;16267;48.194;11.546;2023-01-28T06:59:23;96490.94;;;0.18;83.83
29239;BME280;16267;48.194;11.546;2023-01-28T07:01:49;96500.41;;;0.19;84.03
29239;BME280;16267;48.194;11.546;2023-01-28T07:04:15;96506.47;;;0.19;84.00
29239;BME280;16267;48.194;11.546;2023-01-28T07:06:41;96503.84;;;0.19;84.05
29239;BME280;16267;48.194;11.546;2023-01-28T07:09:06;96499.63;;;0.18;83.79
29239;BME280;16267;48.194;11.546;2023-01-28T07:11:32;96506.78;;;0.18;83.77
29239;BME280;16267;48.194;11.546;2023-01-28T07:13:58;96506.66;;;0.14;83.39
29239;BME280;16267;48.194;11.546;2023-01-28T07:16:24;96508.50;;;0.14;84.00
29239;BME280;16267;48.194;11.546;2023-01-28T07:18:52;96514.22;;;0.16;84.40
29239;BME280;16267;48.194;11.546;2023-01-28T07:21:18;96511.59;;;0.16;84.64
29239;BME280;16267;48.194;11.546;2023-01-28T07:23:44;96521.69;;;0.14;84.21
29239;BME280;16267;48.194;11.546;2023-01-28T07:26:09;96525.13;;;0.14;84.76
29239;BME280;16267;48.194;11.546;2023-01-28T07:28:35;96518.28;;;0.13;84.34
29239;BME280;16267;48.194;11.546;2023-01-28T07:31:01;96531.19;;;0.15;84.84
29239;BME280;16267;48.194;11.546;2023-01-28T07:33:27;96531.19;;;0.15;84.76
29239;BME280;16267;48.194;11.546;2023-01-28T07:35:52;96526.66;;;0.15;84.84
29239;BME280;16267;48.194;11.546;2023-01-28T07:38:18;96528.19;;;0.16;85.27
29239;BME280;16267;48.194;11.546;2023-01-28T07:40:45;96527.13;;;0.17;85.25
29239;BME280;16267;48.194;11.546;2023-01-28T07:43:11;96533.63;;;0.20;85.41
29239;BME280;16267;48.194;11.546;2023-01-28T07:45:37;96537.81;;;0.21;85.70
29239;BME280;16267;48.194;11.546;2023-01-28T07:48:06;96542.47;;;0.24;85.50
29239;BME280;16267;48.194;11.546;2023-01-28T07:50:35;96540.59;;;0.25;85.10
29239;BME280;16267;48.194;11.546;2023-01-28T07:53:04;96542.91;;;0.26;85.38
29239;BME280;16267;48.194;11.546;2023-01-28T07:55:30;96547.09;;;0.27;85.28
29239;BME280;16267;48.194;11.546;2023-01-28T07:57:58;96550.97;;;0.30;85.19
29239;BME280;16267;48.194;11.546;2023-01-28T08:00:29;96550.19;;;0.29;85.07
29239;BME280;16267;48.194;11.546;2023-01-28T08:03:02;96555.16;;;0.31;84.91
29239;BME280;16267;48.194;11.546;2023-01-28T08:05:41;96554.06;;;0.32;84.81
29239;BME280;16267;48.194;11.546;2023-01-28T08:08:09;96551.09;;;0.33;84.87
29239;BME280;16267;48.194;11.546;2023-01-28T08:10:36;96554.53;;;0.34;84.83
29239;BME280;16267;48.194;11.546;2023-01-28T08:13:03;96558.72;;;0.35;84.88
29239;BME280;16267;48.194;11.546;2023-01-28T08:15:29;96563.69;;;0.36;84.59
29239;BME280;16267;48.194;11.546;2023-01-28T08:17:59;96561.03;;;0.36;84.78
29239;BME280;16267;48.194;11.546;2023-01-28T08:20:27;96568.63;;;0.38;84.96
29239;BME280;16267;48.194;11.546;2023-01-28T08:23:07;96564.59;;;0.40;84.91
29239;BME280;16267;48.194;11.546;2023-01-28T08:25:34;96574.03;;;0.41;84.86
29239;BME280;16267;48.194;11.546;2023-01-28T08:28:02;96575.59;;;0.42;84.71
29239;BME280;16267;48.194;11.546;2023-01-28T08:30:28;96572.97;;;0.42;84.99
29239;BME280;16267;48.194;11.546;2023-01-28T08:32:58;96581.66;;;0.43;84.97
29239;BME280;16267;48.194;11.546;2023-01-28T08:35:26;96578.25;;;0.42;84.86
29239;BME280;16267;48.194;11.546;2023-01-28T08:37:52;96580.25;;;0.46;84.92
29239;BME280;16267;48.194;11.546;2023-01-28T08:40:19;96581.78;;;0.47;84.96
29239;BME280;16267;48.194;11.546;2023-01-28T08:42:53;96579.59;;;0.49;85.02
29239;BME280;16267;48.194;11.546;2023-01-28T08:45:22;96581.13;;;0.50;85.01
29239;BME280;16267;48.194;11.546;2023-01-28T08:48:04;96585.34;;;0.51;84.77
29239;BME280;16267;48.194;11.546;2023-01-28T08:50:34;96577.88;;;0.53;84.89
29239;BME280;16267;48.194;11.546;2023-01-28T08:53:03;96587.00;;;0.55;85.03
29239;BME280;16267;48.194;11.546;2023-01-28T08:55:29;96589.34;;;0.57;85.04
29239;BME280;16267;48.194;11.546;2023-01-28T08:57:56;96587.47;;;0.57;84.68
29239;BME280;16267;48.194;11.546;2023-01-28T09:00:22;96591.34;;;0.60;84.64
29239;BME280;16267;48.194;11.546;2023-01-28T09:02:52;96601.59;;;0.61;84.70
29239;BME280;16267;48.194;11.546;2023-01-28T09:05:18;96597.84;;;0.62;84.62
29239;BME280;16267;48.194;11.546;2023-01-28T09:07:45;96600.19;;;0.64;84.46
29239;BME280;16267;48.194;11.546;2023-01-28T09:10:11;96596.44;;;0.65;84.62
29239;BME280;16267;48.194;11.546;2023-01-28T09:12:37;96599.84;;;0.65;84.13
29239;BME280;16267;48.194;11.546;2023-01-28T09:15:04;96599.56;;;0.67;84.20
29239;BME280;16267;48.194;11.546;2023-01-28T09:17:30;96592.84;;;0.70;84.69
29239;BME280;16267;48.194;11.546;2023-01-28T09:19:56;96595.16;;;0.71;84.80
29239;BME280;16267;48.194;11.546;2023-01-28T09:22:23;96594.84;;;0.73;84.63
29239;BME280;16267;48.194;11.546;2023-01-28T09:24:49;96599.81;;;0.74;84.55
29239;BME280;16267;48.194;11.546;2023-01-28T09:27:15;96602.91;;;0.76;84.12
29239;BME280;16267;48.194;11.546;2023-01-28T09:29:41;96602.25;;;0.79;84.24
29239;BME280;16267;48.194;11.546;2023-01-28T09:32:06;96610.31;;;0.83;84.18
29239;BME280;16267;48.194;11.546;2023-01-28T09:34:33;96601.31;;;0.84;83.81
29239;BME280;16267;48.194;11.546;2023-01-28T09:36:58;96602.84;;;0.85;83.48
29239;BME280;16267;48.194;11.546;2023-01-28T09:39:24;96604.41;;;0.86;82.63
29239;BME280;16267;48.194;11.546;2023-01-28T09:47:57;96598.47;;;0.89;82.30
29239;BME280;16267;48.194;11.546;2023-01-28T09:50:33;96602.66;;;0.90;81.92
29239;BME280;16267;48.194;11.546;2023-01-28T09:53:17;96600.47;;;0.92;82.58
29239;BME280;16267;48.194;11.546;2023-01-28T09:55:49;96604.34;;;0.95;82.78
29239;BME280;16267;48.194;11.546;2023-01-28T09:58:16;96605.56;;;0.97;82.30
29239;BME280;16267;48.194;11.546;2023-01-28T10:17:50;96583.25;;;1.28;81.94
29239;BME280;16267;48.194;11.546;2023-01-28T10:20:21;96588.66;;;1.31;81.91
29239;BME280;16267;48.194;11.546;2023-01-28T10:25:41;96584.38;;;1.39;82.06
29239;BME280;16267;48.194;11.546;2023-01-28T10:28:28;96592.75;;;1.41;81.10
29239;BME280;16267;48.194;11.546;2023-01-28T10:30:55;96590.56;;;1.43;80.69
29239;BME280;16267;48.194;11.546;2023-01-28T10:35:54;96579.66;;;1.45;80.52
29239;BME280;16267;48.194;11.546;2023-01-28T10:38:25;96581.97;;;1.46;79.44
29239;BME280;16267;48.194;11.546;2023-01-28T10:40:52;96582.88;;;1.50;80.16
29239;BME280;16267;48.194;11.546;2023-01-28T10:43:23;96578.81;;;1.53;79.37
29239;BME280;16267;48.194;11.546;2023-01-28T10:46:31;96569.88;;;1.58;79.61
29239;BME280;16267;48.194;11.546;2023-01-28T10:51:41;96560.31;;;1.65;79.25
29239;BME280;16267;48.194;11.546;2023-01-28T10:54:37;96574.09;;;1.71;79.10
29239;BME280;16267;48.194;11.546;2023-01-28T10:57:09;96573.91;;;1.76;78.71
29239;BME280;16267;48.194;11.546;2023-01-28T10:59:37;96578.88;;;1.77;77.93
29239;BME280;16267;48.194;11.546;2023-01-28T11:02:33;96572.59;;;1.82;77.98
29239;BME280;16267;48.194;11.546;2023-01-28T11:05:14;96578.34;;;1.84;77.34
29239;BME280;16267;48.194;11.546;2023-01-28T11:07:42;96579.56;;;1.87;77.11
29239;BME280;16267;48.194;11.546;2023-01-28T11:10:31;96578.91;;;1.90;77.12
29239;BME280;16267;48.194;11.546;2023-01-28T11:13:01;96572.16;;;1.92;75.87
29239;BME280;16267;48.194;11.546;2023-01-28T11:15:28;96580.56;;;1.94;76.00
29239;BME280;16267;48.194;11.546;2023-01-28T11:18:04;96570.53;;;2.00;76.24
29239;BME280;16267;48.194;11.546;2023-01-28T11:20:41;96577.47;;;2.05;76.54
29239;BME280;16267;48.194;11.546;2023-01-28T11:23:36;96576.03;;;2.07;75.80
29239;BME280;16267;48.194;11.546;2023-01-28T11:26:18;96579.59;;;2.11;76.43
29239;BME280;16267;48.194;11.546;2023-01-28T11:28:44;96581.56;;;2.14;76.87
29239;BME280;16267;48.194;11.546;2023-01-28T11:31:14;96581.22;;;2.16;76.80
29239;BME280;16267;48.194;11.546;2023-01-28T11:36:24;96573.63;;;2.14;75.58
29239;BME280;16267;48.194;11.546;2023-01-28T11:38:55;96574.84;;;2.17;76.19
29239;BME280;16267;48.194;11.546;2023-01-28T11:41:36;96580.16;;;2.17;75.53
29239;BME280;16267;48.194;11.546;2023-01-28T11:44:25;96574.06;;;2.16;75.47
29239;BME280;16267;48.194;11.546;2023-01-28T11:50:15;96575.16;;;2.15;75.75
29239;BME280;16267;48.194;11.546;2023-01-28T11:56:11;96573.28;;;2.16;76.31
29239;BME280;16267;48.194;11.546;2023-01-28T12:05:06;96568.66;;;2.13;75.46
29239;BME280;16267;48.194;11.546;2023-01-28T12:13:16;96570.88;;;2.11;76.10
29239;BME280;16267;48.194;11.546;2023-01-28T12:22:11;96570.94;;;2.02;75.94
29239;BME280;16267;48.194;11.546;2023-01-28T12:25:42;96566.00;;;2.00;75.86
29239;BME280;16267;48.194;11.546;2023-01-28T12:28:06;96565.25;;;2.00;76.41
29239;BME280;16267;48.194;11.546;2023-01-28T12:37:11;96573.50;;;1.98;75.97
29239;BME280;16267;48.194;11.546;2023-01-28T12:39:59;96574.59;;;1.97;75.40
29239;BME280;16267;48.194;11.546;2023-01-28T12:42:55;96573.84;;;1.97;75.62
29239;BME280;16267;48.194;11.546;2023-01-28T12:45:29;96580.22;;;1.96;74.87
29239;BME280;16267;48.194;11.546;2023-01-28T12:48:12;96571.06;;;1.93;75.22
29239;BME280;16267;48.194;11.546;2023-01-28T12:51:02;96577.78;;;1.91;74.81
29239;BME280;16267;48.194;11.546;2023-01-28T12:56:32;96573.38;;;1.95;75.93
29239;BME280;16267;48.194;11.546;2023-01-28T12:59:12;96572.28;;;1.96;75.93
29239;BME280;16267;48.194;11.546;2023-01-28T13:07:34;96569.31;;;1.97;75.47
29239;BME280;16267;48.194;11.546;2023-01-28T13:10:05;96573.50;;;1.98;75.21
29239;BME280;16267;48.194;11.546;2023-01-28T13:12:35;96577.69;;;1.99;75.16
29239;BME280;16267;48.194;11.546;2023-01-28T13:15:09;96573.19;;;2.00;75.09
29239;BME280;16267;48.194;11.546;2023-01-28T13:17:35;96577.38;;;2.01;74.70
29239;BME280;16267;48.194;11.546;2023-01-28T13:20:14;96576.25;;;2.02;74.25
29239;BME280;16267;48.194;11.546;2023-01-28T13:22:43;96574.41;;;2.03;74.36
29239;BME280;16267;48.194;11.546;2023-01-28T13:25:25;96582.34;;;2.03;74.64
29239;BME280;16267;48.194;11.546;2023-01-28T13:28:01;96573.59;;;2.02;74.25
29239;BME280;16267;48.194;11.546;2023-01-28T13:30:34;96579.25;;;2.00;73.81
29239;BME280;16267;48.194;11.546;2023-01-28T13:33:36;96583.44;;;2.01;73.53
29239;BME280;16267;48.194;11.546;2023-01-28T13:36:32;96589.06;;;2.00;73.82
29239;BME280;16267;48.194;11.546;2023-01-28T13:42:39;96592.78;;;1.99;73.95
29239;BME280;16267;48.194;11.546;2023-01-28T13:44:39;96590.91;;;1.99;74.52
29239;BME280;16267;48.194;11.546;2023-01-28T13:47:13;96603.38;;;1.99;73.78
29239;BME280;16267;48.194;11.546;2023-01-28T13:49:50;96604.50;;;1.98;74.63
29239;BME280;16267;48.194;11.546;2023-01-28T13:52:28;96602.16;;;1.96;74.98
29239;BME280;16267;48.194;11.546;2023-01-28T14:16:08;96615.28;;;1.93;75.81
29239;BME280;16267;48.194;11.546;2023-01-28T14:18:42;96625.13;;;1.92;75.17
29239;BME280;16267;48.194;11.546;2023-01-28T14:21:18;96619.81;;;1.92;75.27
29239;BME280;16267;48.194;11.546;2023-01-28T14:23:54;96624.22;;;1.88;74.83
29239;BME280;16267;48.194;11.546;2023-01-28T14:26:50;96635.59;;;1.89;75.31
29239;BME280;16267;48.194;11.546;2023-01-28T14:33:10;96629.84;;;1.87;75.38
29239;BME280;16267;48.194;11.546;2023-01-28T14:35:50;96636.69;;;1.88;75.44
29239;BME280;16267;48.194;11.546;2023-01-28T14:38:31;96642.75;;;1.88;76.08
29239;BME280;16267;48.194;11.546;2023-01-28T14:41:03;96638.25;;;1.89;76.15
29239;BME280;16267;48.194;11.546;2023-01-28T14:43:35;96639.00;;;1.89;75.76
29239;BME280;16267;48.194;11.546;2023-01-28T14:46:45;96641.97;;;1.88;74.93
29239;BME280;16267;48.194;11.546;2023-01-28T14:58:47;96641.66;;;1.89;74.92
29239;BME280;16267;48.194;11.546;2023-01-28T15:01:27;96655.66;;;1.90;75.07
29239;BME280;16267;48.194;11.546;2023-01-28T15:03:53;96651.13;;;1.90;74.64
29239;BME280;16267;48.194;11.546;2023-01-28T15:06:42;96648.50;;;1.90;74.89
29239;BME280;16267;48.194;11.546;2023-01-28T15:09:20;96649.59;;;1.89;74.58
29239;BME280;16267;48.194;11.546;2023-01-28T15:11:48;96649.59;;;1.89;74.50
29239;BME280;16267;48.194;11.546;2023-01-28T15:14:30;96660.50;;;1.88;74.24
29239;BME280;16267;48.194;11.546;2023-01-28T15:17:01;96655.97;;;1.88;74.47
29239;BME280;16267;48.194;11.546;2023-01-28T15:19:35;96663.16;;;1.88;74.51
29239;BME280;16267;48.194;11.546;2023-01-28T15:22:13;96664.25;;;1.87;74.43
29239;BME280;16267;48.194;11.546;2023-01-28T15:24:42;96668.78;;;1.86;74.59
29239;BME280;16267;48.194;11.546;2023-01-28T15:27:17;96661.94;;;1.85;74.69
29239;BME280;16267;48.194;11.546;2023-01-28T15:29:57;96664.91;;;1.84;74.17
29239;BME280;16267;48.194;11.546;2023-01-28T15:32:30;96671.28;;;1.83;74.34
29239;BME280;16267;48.194;11.546;2023-01-28T15:35:05;96675.03;;;1.82;74.14
29239;BME280;16267;48.194;11.546;2023-01-28T15:38:02;96675.34;;;1.80;74.68